createdAt,value
2022-10-19T00:01:43.816Z,1.76
2022-10-19T00:04:10.510Z,1.81
2022-10-19T00:06:37.482Z,1.80
2022-10-19T00:09:08.787Z,1.69
2022-10-19T00:11:38.426Z,1.63
2022-10-19T00:14:06.683Z,1.62
2022-10-19T00:16:37.609Z,1.60
2022-10-19T00:19:08.174Z,1.52
2022-10-19T00:21:35.396Z,1.46
2022-10-19T00:24:02.086Z,1.48
2022-10-19T00:26:28.752Z,1.53
2022-10-19T00:28:56.262Z,1.60
2022-10-19T00:31:23.380Z,1.58
2022-10-19T00:33:50.527Z,1.39
2022-10-19T00:36:28.304Z,1.19
2022-10-19T00:38:56.229Z,1.42
2022-10-19T00:41:25.917Z,1.50
2022-10-19T00:44:27.385Z,1.49
2022-10-19T00:46:56.970Z,1.41
2022-10-19T00:49:27.385Z,1.51
2022-10-19T00:51:57.198Z,1.61
2022-10-19T00:54:25.390Z,1.58
2022-10-19T00:56:55.029Z,1.49
2022-10-19T00:59:24.892Z,1.51
2022-10-19T01:01:53.096Z,1.47
2022-10-19T01:04:24.930Z,1.41
2022-10-19T01:06:53.553Z,1.18
2022-10-19T01:09:20.601Z,1.26
2022-10-19T01:12:21.708Z,1.26
2022-10-19T01:14:48.286Z,1.26
2022-10-19T01:17:20.522Z,1.23
2022-10-19T01:20:22.046Z,1.11
2022-10-19T01:22:54.720Z,1.28
2022-10-19T01:25:40.028Z,1.27
2022-10-19T01:28:15.475Z,0.99
2022-10-19T01:31:03.970Z,0.96
2022-10-19T01:33:33.746Z,0.90
2022-10-19T01:36:03.364Z,0.94
2022-10-19T01:38:38.374Z,0.91
2022-10-19T01:41:24.698Z,0.75
2022-10-19T01:44:11.495Z,0.82
2022-10-19T01:46:56.862Z,0.76
2022-10-19T01:49:23.401Z,0.64
2022-10-19T01:51:55.617Z,0.77
2022-10-19T01:54:26.226Z,0.81
2022-10-19T01:56:55.134Z,0.79
2022-10-19T01:59:23.607Z,0.79
2022-10-19T02:01:53.601Z,0.76
2022-10-19T02:04:23.002Z,0.68
2022-10-19T02:06:52.667Z,0.65
2022-10-19T02:09:20.264Z,0.60
2022-10-19T02:11:53.355Z,0.70
2022-10-19T02:14:28.795Z,0.68
2022-10-19T02:17:02.744Z,0.77
2022-10-19T02:19:30.064Z,0.83
2022-10-19T02:21:57.262Z,0.75
2022-10-19T02:24:24.026Z,0.80
2022-10-19T02:26:51.577Z,0.78
2022-10-19T02:29:18.489Z,0.82
2022-10-19T02:31:45.540Z,0.77
2022-10-19T02:34:13.298Z,0.62
2022-10-19T02:36:40.069Z,0.68
2022-10-19T02:39:07.534Z,0.65
2022-10-19T02:41:39.627Z,0.58
2022-10-19T02:44:14.483Z,0.66
2022-10-19T02:46:50.666Z,0.87
2022-10-19T02:49:18.191Z,1.02
2022-10-19T02:52:03.967Z,1.14
2022-10-19T02:54:32.299Z,1.25
2022-10-19T02:56:59.281Z,1.22
2022-10-19T02:59:27.054Z,1.03
2022-10-19T03:01:53.721Z,0.88
2022-10-19T03:04:20.385Z,0.86
2022-10-19T03:06:47.265Z,0.77
2022-10-19T03:09:13.931Z,0.71
2022-10-19T03:11:40.649Z,0.56
2022-10-19T03:14:07.303Z,0.63
2022-10-19T03:16:34.087Z,0.67
2022-10-19T03:19:00.738Z,0.77
2022-10-19T03:21:27.366Z,0.76
2022-10-19T03:23:56.369Z,0.52
2022-10-19T03:26:22.997Z,0.65
2022-10-19T03:28:49.659Z,0.64
2022-10-19T03:31:16.386Z,0.59
2022-10-19T03:33:43.137Z,0.57
2022-10-19T03:36:37.874Z,0.57
2022-10-19T03:39:08.133Z,0.73
2022-10-19T03:41:36.513Z,0.55
2022-10-19T03:44:04.177Z,0.46
2022-10-19T03:46:31.194Z,0.50
2022-10-19T03:48:58.302Z,0.38
2022-10-19T03:51:27.782Z,0.34
2022-10-19T03:53:58.246Z,0.36
2022-10-19T03:56:26.494Z,0.31
2022-10-19T03:58:55.081Z,0.27
2022-10-19T04:01:27.816Z,0.25
2022-10-19T04:04:02.357Z,0.42
2022-10-19T04:06:34.920Z,0.54
2022-10-19T04:09:03.318Z,0.73
2022-10-19T04:11:31.037Z,0.61
2022-10-19T04:13:58.971Z,0.51
2022-10-19T04:16:27.831Z,0.42
2022-10-19T04:18:55.210Z,0.45
2022-10-19T04:21:24.756Z,0.46
2022-10-19T04:23:53.178Z,0.44
2022-10-19T04:26:20.957Z,0.39
2022-10-19T04:28:47.641Z,0.35
2022-10-19T04:31:14.786Z,0.27
2022-10-19T04:33:41.671Z,0.41
2022-10-19T04:36:10.753Z,0.41
2022-10-19T04:38:37.725Z,0.32
2022-10-19T04:41:06.757Z,0.37
2022-10-19T04:43:33.491Z,0.31
2022-10-19T04:46:08.326Z,0.35
2022-10-19T04:48:37.454Z,0.65
2022-10-19T04:51:04.579Z,0.64
2022-10-19T04:53:32.405Z,0.77
2022-10-19T04:55:59.492Z,0.56
2022-10-19T04:58:27.503Z,0.66
2022-10-19T05:00:54.533Z,0.68
2022-10-19T05:03:21.220Z,0.66
2022-10-19T05:05:47.839Z,0.65
2022-10-19T05:08:14.510Z,0.70
2022-10-19T05:10:44.224Z,0.72
2022-10-19T05:13:14.124Z,0.78
2022-10-19T05:15:40.743Z,0.90
2022-10-19T05:18:07.501Z,0.81
2022-10-19T05:20:34.187Z,0.78
2022-10-19T05:23:06.173Z,0.77
2022-10-19T05:25:34.119Z,0.85
2022-10-19T05:28:00.726Z,0.99
2022-10-19T05:30:27.476Z,1.05
2022-10-19T05:32:54.121Z,1.18
2022-10-19T05:35:22.607Z,1.19
2022-10-19T05:37:54.558Z,1.24
2022-10-19T05:40:21.280Z,1.33
2022-10-19T05:42:47.954Z,1.36
2022-10-19T05:45:14.663Z,1.47
2022-10-19T05:47:41.334Z,1.63
2022-10-19T05:50:08.373Z,1.69
2022-10-19T05:52:35.083Z,1.86
2022-10-19T05:55:01.720Z,1.96
2022-10-19T05:57:28.424Z,2.23
2022-10-19T05:59:58.377Z,2.44
2022-10-19T06:02:25.009Z,3.77
2022-10-19T06:04:51.711Z,6.07
2022-10-19T06:07:18.536Z,8.07
2022-10-19T06:09:46.097Z,9.74
2022-10-19T06:12:14.039Z,11.30
2022-10-19T06:14:42.599Z,12.75
2022-10-19T06:17:09.400Z,13.84
2022-10-19T06:19:36.312Z,14.80
2022-10-19T06:22:02.987Z,15.69
2022-10-19T06:24:29.675Z,16.74
2022-10-19T06:26:56.383Z,17.75
2022-10-19T06:29:23.018Z,17.90
2022-10-19T06:31:49.685Z,18.49
2022-10-19T06:34:16.439Z,15.76
2022-10-19T06:36:43.095Z,17.06
2022-10-19T06:39:09.985Z,17.43
2022-10-19T06:41:36.708Z,17.53
2022-10-19T06:44:03.388Z,16.94
2022-10-19T06:46:30.647Z,17.57
2022-10-19T06:49:00.081Z,18.27
2022-10-19T06:51:34.037Z,19.77
2022-10-19T06:54:01.003Z,20.42
2022-10-19T06:56:27.748Z,20.59
2022-10-19T06:58:55.110Z,20.67
2022-10-19T07:01:22.213Z,19.38
2022-10-19T07:03:51.367Z,19.96
2022-10-19T07:06:19.667Z,19.25
2022-10-19T07:08:46.560Z,19.72
2022-10-19T07:11:17.644Z,20.78
2022-10-19T07:13:44.337Z,22.10
2022-10-19T07:16:16.150Z,22.50
2022-10-19T07:18:47.255Z,23.15
2022-10-19T07:21:15.875Z,22.34
2022-10-19T07:23:44.375Z,22.68
2022-10-19T07:26:23.997Z,20.30
2022-10-19T07:28:51.125Z,19.42
2022-10-19T07:31:20.658Z,17.83
2022-10-19T07:33:48.365Z,17.11
2022-10-19T07:36:15.148Z,18.75
2022-10-19T07:38:41.810Z,19.52
2022-10-19T07:41:12.858Z,20.12
2022-10-19T07:43:40.685Z,20.48
2022-10-19T07:46:11.625Z,19.35
2022-10-19T07:48:38.264Z,17.40
2022-10-19T07:51:07.239Z,18.76
2022-10-19T07:53:35.200Z,17.52
2022-10-19T07:56:10.340Z,17.21
2022-10-19T07:58:37.949Z,17.37
2022-10-19T08:01:16.914Z,18.66
2022-10-19T08:04:31.739Z,19.91
2022-10-19T08:06:31.730Z,20.20
2022-10-19T08:08:58.584Z,19.64
2022-10-19T08:11:32.979Z,18.74
2022-10-19T08:14:00.395Z,20.76
2022-10-19T08:16:32.940Z,23.32
2022-10-19T08:19:05.792Z,22.60
2022-10-19T08:21:32.905Z,21.76
2022-10-19T08:24:00.227Z,21.69
2022-10-19T08:26:31.795Z,23.31
2022-10-19T08:29:03.195Z,22.51
2022-10-19T08:31:30.415Z,22.64
2022-10-19T08:33:57.340Z,24.20
2022-10-19T08:36:24.421Z,24.11
2022-10-19T08:38:51.175Z,26.24
2022-10-19T08:41:36.820Z,24.72
2022-10-19T08:44:37.542Z,24.35
2022-10-19T08:47:06.111Z,23.55
2022-10-19T08:49:34.783Z,24.90
2022-10-19T08:52:05.954Z,24.57
2022-10-19T08:54:51.012Z,24.91
2022-10-19T08:57:38.891Z,27.27
2022-10-19T09:00:14.620Z,28.70
2022-10-19T09:03:09.880Z,25.86
2022-10-19T09:06:01.723Z,24.38
2022-10-19T09:08:28.608Z,25.22
2022-10-19T09:10:55.577Z,24.76
2022-10-19T09:13:29.207Z,24.23
2022-10-19T09:16:06.470Z,25.35
2022-10-19T09:18:35.216Z,25.32
2022-10-19T09:21:09.421Z,24.92
2022-10-19T09:23:39.224Z,23.59
2022-10-19T09:26:28.516Z,23.95
2022-10-19T09:29:00.204Z,24.22
2022-10-19T09:31:40.326Z,24.48
2022-10-19T09:34:33.565Z,24.27
2022-10-19T09:37:00.677Z,22.81
2022-10-19T09:39:29.927Z,23.63
2022-10-19T09:42:06.604Z,23.25
2022-10-19T09:44:33.311Z,24.03
2022-10-19T09:47:29.050Z,23.84
2022-10-19T09:50:18.262Z,23.94
2022-10-19T09:52:50.479Z,23.68
2022-10-19T09:55:17.122Z,24.38
2022-10-19T09:57:49.682Z,25.56
2022-10-19T10:00:23.060Z,24.85
2022-10-19T10:02:54.984Z,24.40
2022-10-19T10:05:34.469Z,24.80
2022-10-19T10:08:01.599Z,25.06
2022-10-19T10:10:34.644Z,24.72
2022-10-19T10:13:01.832Z,25.48
2022-10-19T10:15:44.455Z,25.22
2022-10-19T10:18:18.829Z,25.32
2022-10-19T10:21:06.906Z,26.05
2022-10-19T10:23:36.621Z,25.68
2022-10-19T10:26:06.222Z,24.91
2022-10-19T10:28:32.862Z,25.85
2022-10-19T10:31:06.155Z,25.74
2022-10-19T10:36:26.840Z,25.87
2022-10-19T10:39:04.096Z,26.14
2022-10-19T10:41:36.685Z,26.97
2022-10-19T10:44:08.641Z,25.52
2022-10-19T10:46:58.191Z,25.89
2022-10-19T10:49:29.061Z,26.89
2022-10-19T10:52:06.336Z,26.38
2022-10-19T10:54:33.508Z,26.34
2022-10-19T10:57:11.706Z,25.50
2022-10-19T11:00:12.443Z,24.93
2022-10-19T11:03:00.809Z,25.47
2022-10-19T11:05:33.554Z,26.64
2022-10-19T11:08:20.091Z,26.62
2022-10-19T11:10:57.230Z,26.16
2022-10-19T11:13:39.725Z,25.43
2022-10-19T11:16:16.903Z,25.73
2022-10-19T11:19:02.711Z,25.71
2022-10-19T11:21:35.375Z,25.82
2022-10-19T11:24:50.288Z,25.81
2022-10-19T11:27:38.770Z,25.27
2022-10-19T11:30:10.739Z,25.29
2022-10-19T11:32:46.668Z,25.98
2022-10-19T11:35:28.790Z,26.33
2022-10-19T11:38:18.761Z,26.11
2022-10-19T11:41:19.585Z,26.32
2022-10-19T11:44:04.706Z,26.23
2022-10-19T11:46:43.405Z,26.62
2022-10-19T11:49:39.561Z,26.67
2022-10-19T11:52:37.937Z,25.76
2022-10-19T11:55:28.415Z,26.27
2022-10-19T11:58:05.709Z,25.85
2022-10-19T12:00:41.830Z,26.13
2022-10-19T12:03:22.724Z,25.83
2022-10-19T12:06:09.395Z,25.93
2022-10-19T12:08:56.195Z,25.98
2022-10-19T12:11:44.912Z,26.50
2022-10-19T12:14:17.591Z,26.41
2022-10-19T12:16:52.009Z,25.54
2022-10-19T12:19:42.995Z,25.09
2022-10-19T12:22:19.292Z,24.77
2022-10-19T12:24:46.594Z,23.96
2022-10-19T12:27:16.600Z,23.35
2022-10-19T12:29:48.051Z,23.05
2022-10-19T12:32:17.580Z,22.78
2022-10-19T12:34:46.926Z,22.49
2022-10-19T12:37:13.595Z,22.77
2022-10-19T12:40:04.906Z,22.79
2022-10-19T12:43:12.544Z,21.90
2022-10-19T12:46:27.262Z,22.48
2022-10-19T12:49:27.900Z,22.70
2022-10-19T12:51:57.122Z,22.25
2022-10-19T12:54:32.626Z,22.49
2022-10-19T12:57:01.942Z,22.78
2022-10-19T12:59:36.570Z,23.09
2022-10-19T13:02:06.694Z,22.58
2022-10-19T13:04:35.972Z,22.87
2022-10-19T13:07:10.983Z,22.75
2022-10-19T13:09:41.844Z,22.75
2022-10-19T13:12:21.618Z,22.08
2022-10-19T13:14:59.128Z,22.48
2022-10-19T13:17:36.604Z,22.64
2022-10-19T13:20:15.139Z,22.12
2022-10-19T13:22:42.916Z,21.72
2022-10-19T13:25:21.985Z,21.64
2022-10-19T13:27:52.812Z,21.49
2022-10-19T13:30:44.083Z,21.00
2022-10-19T13:33:26.054Z,20.70
2022-10-19T13:36:13.279Z,21.16
2022-10-19T13:38:58.524Z,21.00
2022-10-19T13:41:27.312Z,21.26
2022-10-19T13:44:03.355Z,21.42
2022-10-19T13:46:29.950Z,21.04
2022-10-19T13:49:21.329Z,20.61
2022-10-19T13:52:25.501Z,20.79
2022-10-19T13:55:23.463Z,20.90
2022-10-19T13:58:13.875Z,20.77
2022-10-19T14:01:05.783Z,20.80
2022-10-19T14:03:41.362Z,20.85
2022-10-19T14:06:36.158Z,20.38
2022-10-19T14:09:15.139Z,20.32
2022-10-19T14:11:45.290Z,19.94
2022-10-19T14:14:11.886Z,19.83
2022-10-19T14:16:52.862Z,19.84
2022-10-19T14:19:29.324Z,19.90
2022-10-19T14:21:59.946Z,19.94
2022-10-19T14:24:33.032Z,19.90
2022-10-19T14:27:02.028Z,19.86
2022-10-19T14:29:28.739Z,19.37
2022-10-19T14:31:55.475Z,19.31
2022-10-19T14:34:22.349Z,19.32
2022-10-19T14:36:49.975Z,19.31
2022-10-19T14:39:31.280Z,19.10
2022-10-19T14:42:04.118Z,18.99
2022-10-19T14:44:44.266Z,18.59
2022-10-19T14:47:27.357Z,18.39
2022-10-19T14:49:54.300Z,18.01
2022-10-19T14:52:33.635Z,18.10
2022-10-19T14:55:05.510Z,17.38
2022-10-19T14:57:35.981Z,16.87
2022-10-19T15:00:06.215Z,16.39
2022-10-19T15:02:38.728Z,16.33
2022-10-19T15:05:14.624Z,16.46
2022-10-19T15:07:43.463Z,16.26
2022-10-19T15:10:39.159Z,16.18
2022-10-19T15:13:07.562Z,16.04
2022-10-19T15:15:36.123Z,15.46
2022-10-19T15:18:05.847Z,15.20
2022-10-19T15:20:49.375Z,15.22
2022-10-19T15:23:36.865Z,15.16
2022-10-19T15:26:32.925Z,14.89
2022-10-19T15:29:29.399Z,14.66
2022-10-19T15:31:59.055Z,14.73
2022-10-19T15:34:29.739Z,14.59
2022-10-19T15:36:59.384Z,14.23
2022-10-19T15:39:42.094Z,13.96
2022-10-19T15:42:44.454Z,13.72
2022-10-19T15:45:34.102Z,13.68
2022-10-19T15:48:24.666Z,13.55
2022-10-19T15:50:52.153Z,13.40
2022-10-19T15:53:20.812Z,13.53
2022-10-19T15:55:47.943Z,13.46
2022-10-19T16:01:14.995Z,13.02
2022-10-19T16:03:41.702Z,12.93
2022-10-19T16:06:08.676Z,12.88
2022-10-19T16:08:35.398Z,12.63
2022-10-19T16:11:04.175Z,12.54
2022-10-19T16:13:31.189Z,12.52
2022-10-19T16:16:11.189Z,12.43
2022-10-19T16:18:38.789Z,12.41
2022-10-19T16:21:05.685Z,12.22
2022-10-19T16:23:37.782Z,11.89
2022-10-19T16:26:07.925Z,11.91
2022-10-19T16:28:34.659Z,11.86
2022-10-19T16:31:01.345Z,11.64
2022-10-19T16:33:28.102Z,11.34
2022-10-19T16:35:54.766Z,11.48
2022-10-19T16:38:21.383Z,11.38
2022-10-19T16:40:48.140Z,11.30
2022-10-19T16:43:14.875Z,10.99
2022-10-19T16:45:45.005Z,10.94
2022-10-19T16:48:14.506Z,10.92
2022-10-19T16:50:41.206Z,10.61
2022-10-19T16:53:10.465Z,10.59
2022-10-19T16:55:38.093Z,10.45
2022-10-19T16:58:04.929Z,10.35
2022-10-19T17:00:32.296Z,10.06
2022-10-19T17:02:59.116Z,9.69
2022-10-19T17:05:25.802Z,9.78
2022-10-19T17:07:52.564Z,9.97
2022-10-19T17:10:19.343Z,9.90
2022-10-19T17:12:46.018Z,9.78
2022-10-19T17:17:59.944Z,9.34
2022-10-19T17:20:26.722Z,9.55
2022-10-19T17:22:53.471Z,9.30
2022-10-19T17:25:20.252Z,9.25
2022-10-19T17:27:50.970Z,8.80
2022-10-19T17:30:17.998Z,9.07
2022-10-19T17:32:44.873Z,9.00
2022-10-19T17:35:11.605Z,8.84
2022-10-19T17:37:38.398Z,9.06
2022-10-19T17:40:05.882Z,8.54
2022-10-19T17:42:36.463Z,8.51
2022-10-19T17:45:04.145Z,8.24
2022-10-19T17:47:30.790Z,8.27
2022-10-19T17:49:57.532Z,8.08
2022-10-19T17:52:24.164Z,8.08
2022-10-19T17:55:11.049Z,8.26
2022-10-19T17:57:37.834Z,8.13
2022-10-19T18:00:07.083Z,8.39
2022-10-19T18:02:35.630Z,8.24
2022-10-19T18:05:04.689Z,8.12
2022-10-19T18:07:32.313Z,7.86
2022-10-19T18:09:59.107Z,7.64
2022-10-19T18:12:26.769Z,7.96
2022-10-19T18:14:53.536Z,7.40
2022-10-19T18:17:24.063Z,7.69
2022-10-19T18:19:53.681Z,7.35
2022-10-19T18:22:21.885Z,7.58
2022-10-19T18:24:49.635Z,7.27
2022-10-19T18:27:16.274Z,7.30
2022-10-19T18:29:43.750Z,7.39
2022-10-19T18:32:11.693Z,7.41
2022-10-19T18:34:38.763Z,7.40
2022-10-19T18:37:05.622Z,6.97
2022-10-19T18:39:32.325Z,7.27
2022-10-19T18:41:59.000Z,6.93
2022-10-19T18:44:27.852Z,6.72
2022-10-19T18:46:56.482Z,6.98
2022-10-19T18:49:24.945Z,7.09
2022-10-19T18:51:55.162Z,6.98
2022-10-19T18:54:23.168Z,6.65
2022-10-19T18:56:49.970Z,6.21
2022-10-19T18:59:16.849Z,6.69
2022-10-19T19:01:43.816Z,6.62
2022-10-19T19:04:10.995Z,6.80
2022-10-19T19:06:38.683Z,6.18
2022-10-19T19:09:08.928Z,6.61
2022-10-19T19:11:38.245Z,6.61
2022-10-19T19:14:13.731Z,6.74
2022-10-19T19:16:41.314Z,6.95
2022-10-19T19:19:08.928Z,6.34
2022-10-19T19:21:36.696Z,6.17
2022-10-19T19:24:05.592Z,6.48
2022-10-19T19:26:35.604Z,6.59
2022-10-19T19:29:02.691Z,6.40
2022-10-19T19:31:29.643Z,6.45
2022-10-19T19:33:59.029Z,6.53
2022-10-19T19:36:25.740Z,6.53
2022-10-19T19:38:53.963Z,6.43
2022-10-19T19:41:20.761Z,6.07
2022-10-19T19:43:47.606Z,6.26
2022-10-19T19:46:17.423Z,6.20
2022-10-19T19:48:47.067Z,6.41
2022-10-19T19:51:16.862Z,5.67
2022-10-19T19:53:44.402Z,5.83
2022-10-19T19:56:12.723Z,5.72
2022-10-19T19:58:41.058Z,5.56
2022-10-19T20:01:12.295Z,5.42
2022-10-19T20:03:40.815Z,5.19
2022-10-19T20:06:07.707Z,5.38
2022-10-19T20:08:36.317Z,5.02
2022-10-19T20:11:09.119Z,5.47
2022-10-19T20:13:36.437Z,5.51
2022-10-19T20:16:33.468Z,5.39
2022-10-19T20:19:11.892Z,5.51
2022-10-19T20:21:39.310Z,5.46
2022-10-19T20:24:06.955Z,5.35
2022-10-19T20:26:33.728Z,5.54
2022-10-19T20:29:02.752Z,5.65
2022-10-19T20:31:31.568Z,5.67
2022-10-19T20:33:58.342Z,5.58
2022-10-19T20:36:26.243Z,5.49
2022-10-19T20:38:57.602Z,5.73
2022-10-19T20:41:26.617Z,5.70
2022-10-19T20:43:54.378Z,5.62
2022-10-19T20:46:23.935Z,5.54
2022-10-19T20:48:51.462Z,5.44
2022-10-19T20:51:31.977Z,5.18
2022-10-19T20:54:02.266Z,5.22
2022-10-19T20:56:32.169Z,5.26
2022-10-19T20:59:04.559Z,5.24
2022-10-19T21:01:33.964Z,5.33
2022-10-19T21:04:03.372Z,5.19
2022-10-19T21:06:32.644Z,5.27
2022-10-19T21:09:00.717Z,5.42
2022-10-19T21:11:30.021Z,5.24
2022-10-19T21:13:59.268Z,5.47
2022-10-19T21:16:30.422Z,5.13
2022-10-19T21:18:57.487Z,4.81
2022-10-19T21:21:27.325Z,5.05
2022-10-19T21:23:57.107Z,5.02
2022-10-19T21:26:28.699Z,5.13
2022-10-19T21:28:55.888Z,5.26
2022-10-19T21:31:24.675Z,5.13
2022-10-19T21:33:51.832Z,5.30
2022-10-19T21:36:19.755Z,5.09
2022-10-19T21:38:46.786Z,5.00
2022-10-19T21:41:16.360Z,4.51
2022-10-19T21:43:43.103Z,4.89
2022-10-19T21:46:15.255Z,4.90
2022-10-19T21:48:42.729Z,4.90
2022-10-19T21:51:40.776Z,5.19
2022-10-19T21:56:37.445Z,5.01
2022-10-19T21:59:04.534Z,4.96
2022-10-19T22:01:37.300Z,4.66
2022-10-19T22:04:08.634Z,4.54
2022-10-19T22:06:36.586Z,4.61
2022-10-19T22:09:06.375Z,4.29
2022-10-19T22:11:33.253Z,4.58
2022-10-19T22:14:02.381Z,4.61
2022-10-19T22:16:30.634Z,4.53
2022-10-19T22:18:57.372Z,4.55
2022-10-19T22:21:27.873Z,4.40
2022-10-19T22:24:00.792Z,4.24
2022-10-19T22:26:33.284Z,4.00
2022-10-19T22:29:01.055Z,4.19
2022-10-19T22:31:29.737Z,4.30
2022-10-19T22:33:56.605Z,4.27
2022-10-19T22:36:24.775Z,4.10
2022-10-19T22:38:51.561Z,4.30
2022-10-19T22:41:18.201Z,4.51
2022-10-19T22:43:44.878Z,4.38
2022-10-19T22:46:11.574Z,4.51
2022-10-19T22:48:38.192Z,4.67
2022-10-19T22:51:05.361Z,4.63
2022-10-19T22:53:32.058Z,4.77
2022-10-19T22:55:58.717Z,4.48
2022-10-19T22:58:25.417Z,4.70
2022-10-19T23:01:03.566Z,4.75
2022-10-19T23:03:30.428Z,4.60
2022-10-19T23:05:57.182Z,4.63
2022-10-19T23:08:24.158Z,4.66
2022-10-19T23:10:50.899Z,4.79
2022-10-19T23:13:17.688Z,4.55
2022-10-19T23:15:45.330Z,4.70
2022-10-19T23:18:12.844Z,4.75
2022-10-19T23:20:39.610Z,4.74
2022-10-19T23:23:06.418Z,4.84
2022-10-19T23:25:33.223Z,4.38
2022-10-19T23:28:00.022Z,4.45
2022-10-19T23:30:26.967Z,4.53
2022-10-19T23:32:53.594Z,4.45
2022-10-19T23:35:20.292Z,4.63
2022-10-19T23:37:46.895Z,4.51
2022-10-19T23:40:13.604Z,4.49
2022-10-19T23:42:40.230Z,4.55
2022-10-19T23:45:07.511Z,4.36
2022-10-19T23:47:34.518Z,4.32
2022-10-19T23:50:01.580Z,4.07
2022-10-19T23:52:28.208Z,4.01
2022-10-19T23:54:54.953Z,3.98
2022-10-19T23:57:21.850Z,3.77
2022-10-19T23:59:48.488Z,3.97
